sensor_id;sensor_type;location;lat;lon;timestamp;P1;durP1;ratioP1;P2;durP2;ratioP2
54123;SDS011;55741;53.252;5.788;2023-04-01T00:01:10;13.05;;;10.00;;
54123;SDS011;55741;53.252;5.788;2023-04-01T00:03:41;13.27;;;10.43;;
54123;SDS011;55741;53.252;5.788;2023-04-01T00:06:08;15.77;;;11.77;;
54123;SDS011;55741;53.252;5.788;2023-04-01T00:08:37;15.63;;;11.70;;
54123;SDS011;55741;53.252;5.788;2023-04-01T00:11:03;12.32;;;10.18;;
54123;SDS011;55741;53.252;5.788;2023-04-01T00:13:29;12.82;;;10.50;;
54123;SDS011;55741;53.252;5.788;2023-04-01T00:15:58;15.80;;;11.05;;
54123;SDS011;55741;53.252;5.788;2023-04-01T00:18:24;12.32;;;9.95;;
54123;SDS011;55741;53.252;5.788;2023-04-01T00:20:51;13.10;;;10.68;;
54123;SDS011;55741;53.252;5.788;2023-04-01T00:23:17;14.50;;;11.13;;
54123;SDS011;55741;53.252;5.788;2023-04-01T00:25:44;13.55;;;10.50;;
54123;SDS011;55741;53.252;5.788;2023-04-01T00:28:12;12.20;;;10.23;;
54123;SDS011;55741;53.252;5.788;2023-04-01T00:30:38;13.73;;;9.90;;
54123;SDS011;55741;53.252;5.788;2023-04-01T00:33:04;14.57;;;10.30;;
54123;SDS011;55741;53.252;5.788;2023-04-01T00:35:30;13.88;;;11.00;;
54123;SDS011;55741;53.252;5.788;2023-04-01T00:37:58;12.43;;;10.32;;
54123;SDS011;55741;53.252;5.788;2023-04-01T00:40:31;15.02;;;11.35;;
54123;SDS011;55741;53.252;5.788;2023-04-01T00:43:03;12.85;;;10.98;;
54123;SDS011;55741;53.252;5.788;2023-04-01T00:45:39;14.00;;;10.95;;
54123;SDS011;55741;53.252;5.788;2023-04-01T00:48:20;14.18;;;11.55;;
54123;SDS011;55741;53.252;5.788;2023-04-01T00:50:51;14.85;;;11.02;;
54123;SDS011;55741;53.252;5.788;2023-04-01T00:53:20;13.13;;;11.27;;
54123;SDS011;55741;53.252;5.788;2023-04-01T00:55:54;15.23;;;12.63;;
54123;SDS011;55741;53.252;5.788;2023-04-01T00:58:43;14.25;;;11.48;;
54123;SDS011;55741;53.252;5.788;2023-04-01T01:01:13;12.05;;;10.85;;
54123;SDS011;55741;53.252;5.788;2023-04-01T01:03:39;12.68;;;9.93;;
54123;SDS011;55741;53.252;5.788;2023-04-01T01:06:17;12.15;;;10.57;;
54123;SDS011;55741;53.252;5.788;2023-04-01T01:17:48;12.77;;;11.02;;
54123;SDS011;55741;53.252;5.788;2023-04-01T01:20:30;14.45;;;11.20;;
54123;SDS011;55741;53.252;5.788;2023-04-01T01:35:02;15.35;;;11.63;;
54123;SDS011;55741;53.252;5.788;2023-04-01T01:37:31;13.25;;;10.93;;
54123;SDS011;55741;53.252;5.788;2023-04-01T01:39:59;15.43;;;12.70;;
54123;SDS011;55741;53.252;5.788;2023-04-01T01:42:30;18.40;;;12.60;;
54123;SDS011;55741;53.252;5.788;2023-04-01T01:44:58;13.88;;;11.48;;
54123;SDS011;55741;53.252;5.788;2023-04-01T01:47:26;14.32;;;12.10;;
54123;SDS011;55741;53.252;5.788;2023-04-01T01:49:54;14.75;;;12.45;;
54123;SDS011;55741;53.252;5.788;2023-04-01T01:52:21;17.00;;;13.38;;
54123;SDS011;55741;53.252;5.788;2023-04-01T01:54:52;17.85;;;12.90;;
54123;SDS011;55741;53.252;5.788;2023-04-01T01:57:24;19.05;;;13.20;;
54123;SDS011;55741;53.252;5.788;2023-04-01T02:00:09;19.02;;;13.82;;
54123;SDS011;55741;53.252;5.788;2023-04-01T02:02:40;17.23;;;13.25;;
54123;SDS011;55741;53.252;5.788;2023-04-01T02:05:10;17.73;;;13.88;;
54123;SDS011;55741;53.252;5.788;2023-04-01T02:07:41;15.48;;;13.38;;
54123;SDS011;55741;53.252;5.788;2023-04-01T02:10:10;18.58;;;14.75;;
54123;SDS011;55741;53.252;5.788;2023-04-01T02:12:36;19.52;;;13.90;;
54123;SDS011;55741;53.252;5.788;2023-04-01T02:15:08;16.92;;;14.02;;
54123;SDS011;55741;53.252;5.788;2023-04-01T02:17:38;19.08;;;14.95;;
54123;SDS011;55741;53.252;5.788;2023-04-01T02:20:11;20.15;;;15.55;;
54123;SDS011;55741;53.252;5.788;2023-04-01T02:22:41;18.48;;;14.40;;
54123;SDS011;55741;53.252;5.788;2023-04-01T02:25:13;25.15;;;16.73;;
54123;SDS011;55741;53.252;5.788;2023-04-01T02:27:42;21.83;;;16.00;;
54123;SDS011;55741;53.252;5.788;2023-04-01T02:30:10;23.25;;;15.85;;
54123;SDS011;55741;53.252;5.788;2023-04-01T02:32:37;21.60;;;16.42;;
54123;SDS011;55741;53.252;5.788;2023-04-01T02:35:05;19.83;;;14.98;;
54123;SDS011;55741;53.252;5.788;2023-04-01T02:37:33;21.38;;;15.95;;
54123;SDS011;55741;53.252;5.788;2023-04-01T02:40:00;23.85;;;16.45;;
54123;SDS011;55741;53.252;5.788;2023-04-01T02:42:28;19.67;;;15.50;;
54123;SDS011;55741;53.252;5.788;2023-04-01T02:44:55;21.25;;;15.73;;
54123;SDS011;55741;53.252;5.788;2023-04-01T02:47:21;21.92;;;16.38;;
54123;SDS011;55741;53.252;5.788;2023-04-01T02:49:47;23.38;;;16.73;;
54123;SDS011;55741;53.252;5.788;2023-04-01T02:52:13;22.65;;;16.98;;
54123;SDS011;55741;53.252;5.788;2023-04-01T02:54:39;22.48;;;15.80;;
54123;SDS011;55741;53.252;5.788;2023-04-01T02:57:05;17.55;;;14.82;;
54123;SDS011;55741;53.252;5.788;2023-04-01T02:59:31;19.65;;;16.00;;
54123;SDS011;55741;53.252;5.788;2023-04-01T03:01:57;20.92;;;16.15;;
54123;SDS011;55741;53.252;5.788;2023-04-01T03:04:23;16.35;;;13.80;;
54123;SDS011;55741;53.252;5.788;2023-04-01T03:06:49;19.77;;;16.50;;
54123;SDS011;55741;53.252;5.788;2023-04-01T03:09:15;26.58;;;16.70;;
54123;SDS011;55741;53.252;5.788;2023-04-01T03:11:41;20.65;;;14.80;;
54123;SDS011;55741;53.252;5.788;2023-04-01T03:14:07;19.77;;;15.05;;
54123;SDS011;55741;53.252;5.788;2023-04-01T03:16:32;20.15;;;15.48;;
54123;SDS011;55741;53.252;5.788;2023-04-01T03:18:58;21.38;;;15.77;;
54123;SDS011;55741;53.252;5.788;2023-04-01T03:21:27;24.88;;;15.27;;
54123;SDS011;55741;53.252;5.788;2023-04-01T03:23:53;18.98;;;15.23;;
54123;SDS011;55741;53.252;5.788;2023-04-01T03:26:19;22.70;;;16.13;;
54123;SDS011;55741;53.252;5.788;2023-04-01T03:28:47;21.13;;;15.48;;
54123;SDS011;55741;53.252;5.788;2023-04-01T03:31:13;20.27;;;14.82;;
54123;SDS011;55741;53.252;5.788;2023-04-01T03:33:39;22.95;;;15.38;;
54123;SDS011;55741;53.252;5.788;2023-04-01T03:36:05;18.05;;;13.93;;
54123;SDS011;55741;53.252;5.788;2023-04-01T03:38:32;19.55;;;14.27;;
54123;SDS011;55741;53.252;5.788;2023-04-01T03:41:01;16.42;;;13.25;;
54123;SDS011;55741;53.252;5.788;2023-04-01T03:43:27;18.00;;;12.77;;
54123;SDS011;55741;53.252;5.788;2023-04-01T03:45:54;17.13;;;12.82;;
54123;SDS011;55741;53.252;5.788;2023-04-01T03:48:23;18.58;;;13.27;;
54123;SDS011;55741;53.252;5.788;2023-04-01T03:50:50;15.95;;;12.82;;
54123;SDS011;55741;53.252;5.788;2023-04-01T03:53:16;18.77;;;12.55;;
54123;SDS011;55741;53.252;5.788;2023-04-01T03:55:42;14.40;;;11.75;;
54123;SDS011;55741;53.252;5.788;2023-04-01T03:58:09;20.45;;;13.18;;
54123;SDS011;55741;53.252;5.788;2023-04-01T04:00:35;19.27;;;14.02;;
54123;SDS011;55741;53.252;5.788;2023-04-01T04:03:01;20.25;;;14.38;;
54123;SDS011;55741;53.252;5.788;2023-04-01T04:05:27;21.48;;;15.50;;
54123;SDS011;55741;53.252;5.788;2023-04-01T04:07:53;21.13;;;16.25;;
54123;SDS011;55741;53.252;5.788;2023-04-01T04:10:20;26.48;;;18.60;;
54123;SDS011;55741;53.252;5.788;2023-04-01T04:12:48;30.20;;;19.00;;
54123;SDS011;55741;53.252;5.788;2023-04-01T04:15:16;30.10;;;18.92;;
54123;SDS011;55741;53.252;5.788;2023-04-01T04:17:43;30.67;;;19.52;;
54123;SDS011;55741;53.252;5.788;2023-04-01T04:20:10;33.75;;;20.95;;
54123;SDS011;55741;53.252;5.788;2023-04-01T04:22:36;33.85;;;21.15;;
54123;SDS011;55741;53.252;5.788;2023-04-01T04:25:02;33.38;;;20.92;;
54123;SDS011;55741;53.252;5.788;2023-04-01T04:27:29;31.42;;;20.48;;
54123;SDS011;55741;53.252;5.788;2023-04-01T04:29:55;36.72;;;22.55;;
54123;SDS011;55741;53.252;5.788;2023-04-01T04:32:21;32.40;;;20.77;;
54123;SDS011;55741;53.252;5.788;2023-04-01T04:34:47;36.95;;;22.38;;
54123;SDS011;55741;53.252;5.788;2023-04-01T04:37:13;36.15;;;21.80;;
54123;SDS011;55741;53.252;5.788;2023-04-01T04:39:39;35.85;;;22.17;;
54123;SDS011;55741;53.252;5.788;2023-04-01T04:42:05;35.92;;;22.52;;
54123;SDS011;55741;53.252;5.788;2023-04-01T04:44:32;38.22;;;22.48;;
54123;SDS011;55741;53.252;5.788;2023-04-01T04:46:59;40.00;;;23.77;;
54123;SDS011;55741;53.252;5.788;2023-04-01T04:49:25;30.85;;;22.38;;
54123;SDS011;55741;53.252;5.788;2023-04-01T04:51:51;34.90;;;23.02;;
54123;SDS011;55741;53.252;5.788;2023-04-01T04:54:17;35.95;;;22.15;;
54123;SDS011;55741;53.252;5.788;2023-04-01T04:56:43;34.28;;;21.25;;
54123;SDS011;55741;53.252;5.788;2023-04-01T04:59:09;34.97;;;22.75;;
54123;SDS011;55741;53.252;5.788;2023-04-01T05:01:35;39.10;;;24.55;;
54123;SDS011;55741;53.252;5.788;2023-04-01T05:04:01;34.65;;;23.15;;
54123;SDS011;55741;53.252;5.788;2023-04-01T05:06:27;35.05;;;23.50;;
54123;SDS011;55741;53.252;5.788;2023-04-01T05:08:55;32.85;;;23.10;;
54123;SDS011;55741;53.252;5.788;2023-04-01T05:11:21;37.90;;;23.65;;
54123;SDS011;55741;53.252;5.788;2023-04-01T05:13:48;35.78;;;22.90;;
54123;SDS011;55741;53.252;5.788;2023-04-01T05:16:14;31.73;;;21.67;;
54123;SDS011;55741;53.252;5.788;2023-04-01T05:18:42;33.05;;;22.98;;
54123;SDS011;55741;53.252;5.788;2023-04-01T05:21:10;34.05;;;22.05;;
54123;SDS011;55741;53.252;5.788;2023-04-01T05:23:37;36.53;;;22.25;;
54123;SDS011;55741;53.252;5.788;2023-04-01T05:26:08;33.33;;;22.92;;
54123;SDS011;55741;53.252;5.788;2023-04-01T05:28:36;32.08;;;21.05;;
54123;SDS011;55741;53.252;5.788;2023-04-01T05:31:04;38.38;;;23.27;;
54123;SDS011;55741;53.252;5.788;2023-04-01T05:33:31;39.45;;;23.70;;
54123;SDS011;55741;53.252;5.788;2023-04-01T05:36:06;35.58;;;23.80;;
54123;SDS011;55741;53.252;5.788;2023-04-01T05:38:32;36.08;;;22.35;;
54123;SDS011;55741;53.252;5.788;2023-04-01T05:41:04;40.53;;;24.90;;
54123;SDS011;55741;53.252;5.788;2023-04-01T05:43:30;37.80;;;24.45;;
54123;SDS011;55741;53.252;5.788;2023-04-01T05:45:56;42.72;;;26.13;;
54123;SDS011;55741;53.252;5.788;2023-04-01T05:48:24;38.97;;;24.88;;
54123;SDS011;55741;53.252;5.788;2023-04-01T05:50:50;42.25;;;26.75;;
54123;SDS011;55741;53.252;5.788;2023-04-01T05:53:16;41.47;;;25.42;;
54123;SDS011;55741;53.252;5.788;2023-04-01T05:55:42;38.58;;;25.58;;
54123;SDS011;55741;53.252;5.788;2023-04-01T05:58:08;40.92;;;26.27;;
54123;SDS011;55741;53.252;5.788;2023-04-01T06:00:34;42.63;;;25.15;;
54123;SDS011;55741;53.252;5.788;2023-04-01T06:02:59;43.88;;;26.25;;
54123;SDS011;55741;53.252;5.788;2023-04-01T06:05:29;35.90;;;24.83;;
54123;SDS011;55741;53.252;5.788;2023-04-01T06:08:05;42.80;;;25.52;;
54123;SDS011;55741;53.252;5.788;2023-04-01T06:16:31;37.25;;;22.25;;
54123;SDS011;55741;53.252;5.788;2023-04-01T06:33:01;32.75;;;19.50;;
54123;SDS011;55741;53.252;5.788;2023-04-01T06:46:57;41.15;;;26.02;;
54123;SDS011;55741;53.252;5.788;2023-04-01T06:49:33;44.80;;;24.88;;
54123;SDS011;55741;53.252;5.788;2023-04-01T06:55:23;38.85;;;25.25;;
54123;SDS011;55741;53.252;5.788;2023-04-01T06:58:17;46.05;;;26.05;;
54123;SDS011;55741;53.252;5.788;2023-04-01T07:00:51;46.70;;;26.20;;
54123;SDS011;55741;53.252;5.788;2023-04-01T07:03:40;49.45;;;27.30;;
54123;SDS011;55741;53.252;5.788;2023-04-01T07:06:13;45.00;;;27.27;;
54123;SDS011;55741;53.252;5.788;2023-04-01T07:08:46;62.33;;;31.10;;
54123;SDS011;55741;53.252;5.788;2023-04-01T07:11:24;57.47;;;28.42;;
54123;SDS011;55741;53.252;5.788;2023-04-01T07:13:55;53.53;;;27.88;;
54123;SDS011;55741;53.252;5.788;2023-04-01T07:16:30;61.58;;;31.33;;
54123;SDS011;55741;53.252;5.788;2023-04-01T07:24:27;76.85;;;30.17;;
54123;SDS011;55741;53.252;5.788;2023-04-01T07:26:58;77.57;;;31.33;;
54123;SDS011;55741;53.252;5.788;2023-04-01T07:29:25;74.10;;;29.55;;
54123;SDS011;55741;53.252;5.788;2023-04-01T07:37:18;45.80;;;23.42;;
54123;SDS011;55741;53.252;5.788;2023-04-01T07:42:54;59.95;;;26.88;;
54123;SDS011;55741;53.252;5.788;2023-04-01T07:51:07;59.58;;;26.70;;
54123;SDS011;55741;53.252;5.788;2023-04-01T07:54:22;49.13;;;23.30;;
54123;SDS011;55741;53.252;5.788;2023-04-01T07:57:22;54.22;;;22.88;;
54123;SDS011;55741;53.252;5.788;2023-04-01T07:59:57;51.55;;;24.42;;
54123;SDS011;55741;53.252;5.788;2023-04-01T08:10:40;28.48;;;17.55;;
54123;SDS011;55741;53.252;5.788;2023-04-01T08:13:23;20.17;;;10.63;;
54123;SDS011;55741;53.252;5.788;2023-04-01T08:21:57;24.20;;;9.50;;
54123;SDS011;55741;53.252;5.788;2023-04-01T08:26:57;13.20;;;5.68;;
54123;SDS011;55741;53.252;5.788;2023-04-01T08:32:03;14.80;;;5.03;;
54123;SDS011;55741;53.252;5.788;2023-04-01T08:37:58;8.38;;;3.30;;
54123;SDS011;55741;53.252;5.788;2023-04-01T08:43:20;11.38;;;3.53;;
54123;SDS011;55741;53.252;5.788;2023-04-01T08:49:03;13.45;;;3.80;;
54123;SDS011;55741;53.252;5.788;2023-04-01T08:57:12;11.63;;;4.20;;
54123;SDS011;55741;53.252;5.788;2023-04-01T09:08:18;16.17;;;6.63;;
54123;SDS011;55741;53.252;5.788;2023-04-01T09:16:58;14.30;;;5.28;;
54123;SDS011;55741;53.252;5.788;2023-04-01T09:25:53;10.20;;;4.25;;
54123;SDS011;55741;53.252;5.788;2023-04-01T09:28:42;12.82;;;3.78;;
54123;SDS011;55741;53.252;5.788;2023-04-01T09:32:11;9.73;;;3.47;;
54123;SDS011;55741;53.252;5.788;2023-04-01T09:37:35;11.98;;;3.58;;
54123;SDS011;55741;53.252;5.788;2023-04-01T09:45:27;11.70;;;4.50;;
54123;SDS011;55741;53.252;5.788;2023-04-01T09:48:05;9.25;;;5.20;;
54123;SDS011;55741;53.252;5.788;2023-04-01T09:51:00;12.05;;;4.20;;
54123;SDS011;55741;53.252;5.788;2023-04-01T10:15:50;8.80;;;3.72;;
54123;SDS011;55741;53.252;5.788;2023-04-01T10:33:10;13.93;;;4.03;;
54123;SDS011;55741;53.252;5.788;2023-04-01T10:52:23;9.30;;;3.15;;
54123;SDS011;55741;53.252;5.788;2023-04-01T11:10:03;11.27;;;3.08;;
54123;SDS011;55741;53.252;5.788;2023-04-01T11:12:46;9.52;;;2.78;;
54123;SDS011;55741;53.252;5.788;2023-04-01T11:16:09;15.45;;;3.20;;
54123;SDS011;55741;53.252;5.788;2023-04-01T11:18:35;13.55;;;2.78;;
54123;SDS011;55741;53.252;5.788;2023-04-01T11:32:50;9.38;;;2.40;;
54123;SDS011;55741;53.252;5.788;2023-04-01T11:35:55;11.57;;;2.30;;
54123;SDS011;55741;53.252;5.788;2023-04-01T11:38:49;9.05;;;2.20;;
54123;SDS011;55741;53.252;5.788;2023-04-01T11:44:35;11.07;;;2.55;;
54123;SDS011;55741;53.252;5.788;2023-04-01T12:01:18;10.95;;;3.53;;
54123;SDS011;55741;53.252;5.788;2023-04-01T12:12:16;6.78;;;2.72;;
54123;SDS011;55741;53.252;5.788;2023-04-01T12:22:46;6.60;;;2.78;;
54123;SDS011;55741;53.252;5.788;2023-04-01T12:47:48;9.55;;;2.30;;
54123;SDS011;55741;53.252;5.788;2023-04-01T12:53:01;8.32;;;2.40;;
54123;SDS011;55741;53.252;5.788;2023-04-01T12:55:49;6.85;;;2.38;;
54123;SDS011;55741;53.252;5.788;2023-04-01T12:58:21;6.97;;;2.70;;
54123;SDS011;55741;53.252;5.788;2023-04-01T13:04:04;7.80;;;2.53;;
54123;SDS011;55741;53.252;5.788;2023-04-01T13:15:05;6.22;;;2.08;;
54123;SDS011;55741;53.252;5.788;2023-04-01T13:29:02;7.22;;;2.60;;
54123;SDS011;55741;53.252;5.788;2023-04-01T13:32:12;8.43;;;2.67;;
54123;SDS011;55741;53.252;5.788;2023-04-01T13:43:23;7.40;;;2.63;;
54123;SDS011;55741;53.252;5.788;2023-04-01T13:45:42;5.82;;;2.55;;
54123;SDS011;55741;53.252;5.788;2023-04-01T13:51:13;6.50;;;2.28;;
54123;SDS011;55741;53.252;5.788;2023-04-01T13:56:56;7.47;;;2.45;;
54123;SDS011;55741;53.252;5.788;2023-04-01T14:08:08;6.43;;;2.30;;
54123;SDS011;55741;53.252;5.788;2023-04-01T14:11:02;7.13;;;1.90;;
54123;SDS011;55741;53.252;5.788;2023-04-01T14:16:51;7.25;;;2.10;;
54123;SDS011;55741;53.252;5.788;2023-04-01T14:19:44;8.27;;;2.58;;
54123;SDS011;55741;53.252;5.788;2023-04-01T14:22:46;5.40;;;2.00;;
54123;SDS011;55741;53.252;5.788;2023-04-01T14:25:21;7.40;;;2.30;;
54123;SDS011;55741;53.252;5.788;2023-04-01T14:28:28;5.63;;;2.30;;
54123;SDS011;55741;53.252;5.788;2023-04-01T14:50:52;9.13;;;3.33;;
54123;SDS011;55741;53.252;5.788;2023-04-01T14:55:50;11.85;;;3.88;;
54123;SDS011;55741;53.252;5.788;2023-04-01T14:58:21;20.23;;;5.28;;
54123;SDS011;55741;53.252;5.788;2023-04-01T15:03:32;13.57;;;4.22;;
54123;SDS011;55741;53.252;5.788;2023-04-01T15:06:38;13.27;;;4.20;;
54123;SDS011;55741;53.252;5.788;2023-04-01T15:28:55;16.15;;;5.53;;
54123;SDS011;55741;53.252;5.788;2023-04-01T15:42:44;14.45;;;5.32;;
54123;SDS011;55741;53.252;5.788;2023-04-01T15:48:27;16.92;;;6.63;;
54123;SDS011;55741;53.252;5.788;2023-04-01T15:54:31;16.27;;;5.93;;
54123;SDS011;55741;53.252;5.788;2023-04-01T15:57:29;14.10;;;5.22;;
54123;SDS011;55741;53.252;5.788;2023-04-01T16:10:30;13.60;;;5.72;;
54123;SDS011;55741;53.252;5.788;2023-04-01T16:14:04;14.23;;;5.35;;
54123;SDS011;55741;53.252;5.788;2023-04-01T16:19:33;11.50;;;5.38;;
54123;SDS011;55741;53.252;5.788;2023-04-01T16:25:18;13.77;;;6.50;;
54123;SDS011;55741;53.252;5.788;2023-04-01T16:28:04;12.02;;;4.75;;
54123;SDS011;55741;53.252;5.788;2023-04-01T16:31:09;15.13;;;5.38;;
54123;SDS011;55741;53.252;5.788;2023-04-01T16:36:30;14.98;;;6.00;;
54123;SDS011;55741;53.252;5.788;2023-04-01T16:44:43;16.30;;;5.78;;
54123;SDS011;55741;53.252;5.788;2023-04-01T16:47:14;22.75;;;7.07;;
54123;SDS011;55741;53.252;5.788;2023-04-01T16:49:50;13.65;;;5.20;;
54123;SDS011;55741;53.252;5.788;2023-04-01T16:52:43;13.82;;;5.95;;
54123;SDS011;55741;53.252;5.788;2023-04-01T16:55:34;12.70;;;6.32;;
54123;SDS011;55741;53.252;5.788;2023-04-01T16:58:09;14.27;;;6.53;;
54123;SDS011;55741;53.252;5.788;2023-04-01T17:00:47;15.27;;;6.78;;
54123;SDS011;55741;53.252;5.788;2023-04-01T17:03:24;12.50;;;6.03;;
54123;SDS011;55741;53.252;5.788;2023-04-01T17:06:26;17.20;;;6.80;;
54123;SDS011;55741;53.252;5.788;2023-04-01T17:14:38;17.90;;;6.70;;
54123;SDS011;55741;53.252;5.788;2023-04-01T17:41:51;12.55;;;5.65;;
54123;SDS011;55741;53.252;5.788;2023-04-01T17:50:13;15.68;;;6.35;;
54123;SDS011;55741;53.252;5.788;2023-04-01T17:52:47;12.10;;;5.32;;
54123;SDS011;55741;53.252;5.788;2023-04-01T18:07:28;15.23;;;6.32;;
54123;SDS011;55741;53.252;5.788;2023-04-01T18:12:13;12.65;;;6.03;;
54123;SDS011;55741;53.252;5.788;2023-04-01T18:26:13;14.27;;;6.53;;
54123;SDS011;55741;53.252;5.788;2023-04-01T18:32:24;16.65;;;6.63;;
54123;SDS011;55741;53.252;5.788;2023-04-01T18:40:30;17.25;;;6.57;;
54123;SDS011;55741;53.252;5.788;2023-04-01T18:46:16;15.80;;;6.30;;
54123;SDS011;55741;53.252;5.788;2023-04-01T18:51:45;20.87;;;6.57;;
54123;SDS011;55741;53.252;5.788;2023-04-01T18:54:29;15.77;;;7.18;;
54123;SDS011;55741;53.252;5.788;2023-04-01T18:57:07;12.93;;;5.50;;
54123;SDS011;55741;53.252;5.788;2023-04-01T18:59:45;11.10;;;5.40;;
54123;SDS011;55741;53.252;5.788;2023-04-01T19:05:19;13.52;;;5.55;;
54123;SDS011;55741;53.252;5.788;2023-04-01T19:07:52;15.38;;;5.78;;
54123;SDS011;55741;53.252;5.788;2023-04-01T19:10:26;12.07;;;5.95;;
54123;SDS011;55741;53.252;5.788;2023-04-01T19:18:20;17.27;;;6.60;;
54123;SDS011;55741;53.252;5.788;2023-04-01T19:37:33;14.73;;;5.68;;
54123;SDS011;55741;53.252;5.788;2023-04-01T19:51:25;16.10;;;6.30;;
54123;SDS011;55741;53.252;5.788;2023-04-01T19:57:05;14.90;;;5.90;;
54123;SDS011;55741;53.252;5.788;2023-04-01T20:04:48;17.17;;;5.68;;
54123;SDS011;55741;53.252;5.788;2023-04-01T20:07:33;16.23;;;5.47;;
54123;SDS011;55741;53.252;5.788;2023-04-01T20:10:19;18.52;;;5.93;;
54123;SDS011;55741;53.252;5.788;2023-04-01T20:15:44;13.02;;;5.43;;
54123;SDS011;55741;53.252;5.788;2023-04-01T20:18:16;16.27;;;6.40;;
54123;SDS011;55741;53.252;5.788;2023-04-01T20:20:54;12.27;;;5.18;;
54123;SDS011;55741;53.252;5.788;2023-04-01T20:23:40;12.25;;;5.30;;
54123;SDS011;55741;53.252;5.788;2023-04-01T20:26:11;14.63;;;5.53;;
54123;SDS011;55741;53.252;5.788;2023-04-01T20:37:02;13.32;;;5.20;;
54123;SDS011;55741;53.252;5.788;2023-04-01T20:47:57;12.82;;;4.93;;
54123;SDS011;55741;53.252;5.788;2023-04-01T20:53:28;12.27;;;4.97;;
54123;SDS011;55741;53.252;5.788;2023-04-01T21:01:20;12.05;;;5.10;;
54123;SDS011;55741;53.252;5.788;2023-04-01T21:03:56;16.25;;;4.38;;
54123;SDS011;55741;53.252;5.788;2023-04-01T21:09:51;17.70;;;5.05;;
54123;SDS011;55741;53.252;5.788;2023-04-01T21:29:36;9.35;;;4.70;;
54123;SDS011;55741;53.252;5.788;2023-04-01T21:32:25;7.60;;;4.47;;
54123;SDS011;55741;53.252;5.788;2023-04-01T21:35:00;12.18;;;4.82;;
54123;SDS011;55741;53.252;5.788;2023-04-01T21:38:04;11.63;;;4.47;;
54123;SDS011;55741;53.252;5.788;2023-04-01T21:58:03;15.65;;;4.55;;
54123;SDS011;55741;53.252;5.788;2023-04-01T22:00:59;12.15;;;4.03;;
54123;SDS011;55741;53.252;5.788;2023-04-01T22:09:10;13.85;;;4.13;;
54123;SDS011;55741;53.252;5.788;2023-04-01T22:11:55;12.60;;;4.15;;
54123;SDS011;55741;53.252;5.788;2023-04-01T22:17:23;19.55;;;4.47;;
54123;SDS011;55741;53.252;5.788;2023-04-01T22:25:23;14.45;;;3.78;;
54123;SDS011;55741;53.252;5.788;2023-04-01T22:30:51;12.98;;;4.20;;
54123;SDS011;55741;53.252;5.788;2023-04-01T22:33:27;17.48;;;3.25;;
54123;SDS011;55741;53.252;5.788;2023-04-01T22:36:32;10.15;;;3.42;;
54123;SDS011;55741;53.252;5.788;2023-04-01T22:42:01;14.45;;;3.63;;
54123;SDS011;55741;53.252;5.788;2023-04-01T22:45:03;9.75;;;3.75;;
54123;SDS011;55741;53.252;5.788;2023-04-01T22:52:45;12.13;;;3.40;;
54123;SDS011;55741;53.252;5.788;2023-04-01T22:55:15;9.68;;;3.80;;
54123;SDS011;55741;53.252;5.788;2023-04-01T23:00:26;13.77;;;4.90;;
54123;SDS011;55741;53.252;5.788;2023-04-01T23:03:14;12.82;;;2.97;;
54123;SDS011;55741;53.252;5.788;2023-04-01T23:05:59;11.23;;;3.25;;
54123;SDS011;55741;53.252;5.788;2023-04-01T23:11:18;7.22;;;2.80;;
54123;SDS011;55741;53.252;5.788;2023-04-01T23:16:37;13.73;;;3.70;;
54123;SDS011;55741;53.252;5.788;2023-04-01T23:19:19;11.63;;;3.20;;
54123;SDS011;55741;53.252;5.788;2023-04-01T23:21:54;11.80;;;3.72;;
54123;SDS011;55741;53.252;5.788;2023-04-01T23:24:48;11.18;;;3.13;;
54123;SDS011;55741;53.252;5.788;2023-04-01T23:29:47;10.93;;;3.80;;
54123;SDS011;55741;53.252;5.788;2023-04-01T23:32:26;10.85;;;3.47;;
54123;SDS011;55741;53.252;5.788;2023-04-01T23:34:59;10.98;;;3.55;;
54123;SDS011;55741;53.252;5.788;2023-04-01T23:37:25;12.13;;;3.50;;
54123;SDS011;55741;53.252;5.788;2023-04-01T23:39:56;14.15;;;3.58;;
54123;SDS011;55741;53.252;5.788;2023-04-01T23:42:24;9.55;;;3.30;;
54123;SDS011;55741;53.252;5.788;2023-04-01T23:44:57;10.02;;;3.45;;
54123;SDS011;55741;53.252;5.788;2023-04-01T23:47:30;12.15;;;3.70;;
54123;SDS011;55741;53.252;5.788;2023-04-01T23:50:32;9.27;;;3.42;;
54123;SDS011;55741;53.252;5.788;2023-04-01T23:52:52;8.95;;;3.35;;
54123;SDS011;55741;53.252;5.788;2023-04-01T23:55:33;10.15;;;2.83;;
